< < Back
Terminal Aerodrome Forecast


Current Version              Previous Versions:   1  2  3  4  5  6  7  8  9  

Terminal Aerodrome Forecast

436
FTUS42 KMLB 041727
TAFMCO
TAF
KMCO 041727Z 0418/0518 VRB03KT P6SM SCT040 SCT170 SCT250
     FM041900 12008KT P6SM VCTS SCT040CB BKN080
      TEMPO 0420/0423 3SM TSRA BKN020CB OVC040
     FM050000 11006KT P6SM SCT040 OVC100
     FM050300 15003KT P6SM SCT120 BKN250=



Latest METAR

294
SAUS70 KWBC 041900 RRE
MTRMCO
METAR KMCO 041853Z 17007KT 10SM FEW045 FEW150 FEW250 34/21 A3009 RMK AO2
SLP187 CB DSNT NE-SE-S T03390206 $


USA.gov is the U.S. government's official web portal to all federal, state and local government web resources and services.